Terminal Aerodrome Forecast
Issued by NWS

Home | Current Version | Previous Version | Text Only | Print | Product List | Glossary On
Versions: 1 2 3 4 5 6 7 8 9 10 11 12 13 14 15 16 17 18 19 20 21
000
FTUS43 KABR 241900 AAA
TAFATY
TAF AMD
KATY 241901Z 2419/2518 15017G25KT P6SM VCTS SCT060CB BKN080
      TEMPO 2419/2420 2SM +TSRA BKN030CB OVC050
     FM242000 15017G25KT P6SM BKN100
     FM250300 15013KT P6SM SCT120
     FM250800 16009KT P6SM SCT120
     FM251600 32010KT P6SM SCT120=

USA.gov is the U.S. government's official web portal to all federal, state and local government web resources and services.